sensor_id;sensor_type;location;lat;lon;timestamp;P1;durP1;ratioP1;P2;durP2;ratioP2
26920;SDS011;14483;47.844;9.660;2023-11-19T00:01:31;0.70;;;0.38;;
26920;SDS011;14483;47.844;9.660;2023-11-19T00:03:57;0.95;;;0.38;;
26920;SDS011;14483;47.844;9.660;2023-11-19T00:06:24;0.40;;;0.30;;
26920;SDS011;14483;47.844;9.660;2023-11-19T00:08:52;2.97;;;0.60;;
26920;SDS011;14483;47.844;9.660;2023-11-19T00:11:18;0.40;;;0.15;;
26920;SDS011;14483;47.844;9.660;2023-11-19T00:13:44;2.13;;;0.35;;
26920;SDS011;14483;47.844;9.660;2023-11-19T00:16:11;1.17;;;0.57;;
26920;SDS011;14483;47.844;9.660;2023-11-19T00:18:37;1.50;;;0.40;;
26920;SDS011;14483;47.844;9.660;2023-11-19T00:21:04;1.13;;;0.40;;
26920;SDS011;14483;47.844;9.660;2023-11-19T00:23:31;0.88;;;0.50;;
26920;SDS011;14483;47.844;9.660;2023-11-19T00:25:59;4.20;;;0.50;;
26920;SDS011;14483;47.844;9.660;2023-11-19T00:28:25;1.27;;;0.77;;
26920;SDS011;14483;47.844;9.660;2023-11-19T00:30:52;1.67;;;0.85;;
26920;SDS011;14483;47.844;9.660;2023-11-19T00:33:18;1.63;;;0.50;;
26920;SDS011;14483;47.844;9.660;2023-11-19T00:35:45;1.70;;;0.40;;
26920;SDS011;14483;47.844;9.660;2023-11-19T00:38:11;1.67;;;0.60;;
26920;SDS011;14483;47.844;9.660;2023-11-19T00:40:37;1.48;;;0.50;;
26920;SDS011;14483;47.844;9.660;2023-11-19T00:43:07;1.33;;;0.60;;
26920;SDS011;14483;47.844;9.660;2023-11-19T00:45:33;1.15;;;0.40;;
26920;SDS011;14483;47.844;9.660;2023-11-19T00:48:00;1.23;;;0.60;;
26920;SDS011;14483;47.844;9.660;2023-11-19T00:50:26;1.23;;;0.55;;
26920;SDS011;14483;47.844;9.660;2023-11-19T00:52:52;2.40;;;0.70;;
26920;SDS011;14483;47.844;9.660;2023-11-19T00:55:19;1.00;;;0.40;;
26920;SDS011;14483;47.844;9.660;2023-11-19T00:57:46;1.73;;;0.52;;
26920;SDS011;14483;47.844;9.660;2023-11-19T01:00:14;2.88;;;0.65;;
26920;SDS011;14483;47.844;9.660;2023-11-19T01:02:43;1.00;;;0.60;;
26920;SDS011;14483;47.844;9.660;2023-11-19T01:05:10;1.52;;;0.70;;
26920;SDS011;14483;47.844;9.660;2023-11-19T01:07:39;3.17;;;0.68;;
26920;SDS011;14483;47.844;9.660;2023-11-19T01:10:06;1.50;;;0.63;;
26920;SDS011;14483;47.844;9.660;2023-11-19T01:12:33;1.30;;;0.80;;
26920;SDS011;14483;47.844;9.660;2023-11-19T01:14:59;0.80;;;0.50;;
26920;SDS011;14483;47.844;9.660;2023-11-19T01:17:27;1.17;;;0.60;;
26920;SDS011;14483;47.844;9.660;2023-11-19T01:19:56;1.25;;;0.60;;
26920;SDS011;14483;47.844;9.660;2023-11-19T01:22:22;2.33;;;0.63;;
26920;SDS011;14483;47.844;9.660;2023-11-19T01:24:49;2.35;;;0.90;;
26920;SDS011;14483;47.844;9.660;2023-11-19T01:27:17;2.42;;;0.68;;
26920;SDS011;14483;47.844;9.660;2023-11-19T01:29:43;3.15;;;0.80;;
26920;SDS011;14483;47.844;9.660;2023-11-19T01:32:09;1.23;;;0.57;;
26920;SDS011;14483;47.844;9.660;2023-11-19T01:34:39;1.38;;;0.50;;
26920;SDS011;14483;47.844;9.660;2023-11-19T01:37:05;1.10;;;0.60;;
26920;SDS011;14483;47.844;9.660;2023-11-19T01:39:34;1.92;;;0.85;;
26920;SDS011;14483;47.844;9.660;2023-11-19T01:42:00;1.63;;;0.80;;
26920;SDS011;14483;47.844;9.660;2023-11-19T01:44:26;2.95;;;0.70;;
26920;SDS011;14483;47.844;9.660;2023-11-19T01:46:53;1.45;;;0.77;;
26920;SDS011;14483;47.844;9.660;2023-11-19T01:49:19;1.88;;;0.88;;
26920;SDS011;14483;47.844;9.660;2023-11-19T01:51:47;1.48;;;0.77;;
26920;SDS011;14483;47.844;9.660;2023-11-19T01:54:13;2.58;;;0.65;;
26920;SDS011;14483;47.844;9.660;2023-11-19T01:56:40;2.05;;;1.10;;
26920;SDS011;14483;47.844;9.660;2023-11-19T01:59:07;1.48;;;0.95;;
26920;SDS011;14483;47.844;9.660;2023-11-19T02:01:34;2.78;;;1.10;;
26920;SDS011;14483;47.844;9.660;2023-11-19T02:04:04;1.52;;;0.77;;
26920;SDS011;14483;47.844;9.660;2023-11-19T02:06:31;1.90;;;0.73;;
26920;SDS011;14483;47.844;9.660;2023-11-19T02:09:00;2.83;;;0.80;;
26920;SDS011;14483;47.844;9.660;2023-11-19T02:11:26;1.13;;;0.68;;
26920;SDS011;14483;47.844;9.660;2023-11-19T02:13:54;1.23;;;0.68;;
26920;SDS011;14483;47.844;9.660;2023-11-19T02:16:21;1.10;;;0.68;;
26920;SDS011;14483;47.844;9.660;2023-11-19T02:18:47;1.67;;;0.82;;
26920;SDS011;14483;47.844;9.660;2023-11-19T02:21:13;1.85;;;0.75;;
26920;SDS011;14483;47.844;9.660;2023-11-19T02:23:42;2.25;;;1.02;;
26920;SDS011;14483;47.844;9.660;2023-11-19T02:26:12;2.47;;;0.65;;
26920;SDS011;14483;47.844;9.660;2023-11-19T02:28:41;2.65;;;0.90;;
26920;SDS011;14483;47.844;9.660;2023-11-19T02:31:08;4.82;;;1.02;;
26920;SDS011;14483;47.844;9.660;2023-11-19T02:33:35;2.53;;;0.73;;
26920;SDS011;14483;47.844;9.660;2023-11-19T02:36:01;1.40;;;0.90;;
26920;SDS011;14483;47.844;9.660;2023-11-19T02:38:28;1.73;;;0.52;;
26920;SDS011;14483;47.844;9.660;2023-11-19T02:40:55;1.63;;;0.73;;
26920;SDS011;14483;47.844;9.660;2023-11-19T02:43:22;1.70;;;0.80;;
26920;SDS011;14483;47.844;9.660;2023-11-19T02:45:50;1.50;;;0.60;;
26920;SDS011;14483;47.844;9.660;2023-11-19T02:48:16;1.63;;;0.68;;
26920;SDS011;14483;47.844;9.660;2023-11-19T02:50:42;1.27;;;0.63;;
26920;SDS011;14483;47.844;9.660;2023-11-19T02:53:09;2.83;;;1.10;;
26920;SDS011;14483;47.844;9.660;2023-11-19T02:55:35;1.60;;;0.80;;
26920;SDS011;14483;47.844;9.660;2023-11-19T02:58:05;1.27;;;0.60;;
26920;SDS011;14483;47.844;9.660;2023-11-19T03:00:44;2.65;;;0.63;;
26920;SDS011;14483;47.844;9.660;2023-11-19T03:03:18;0.52;;;0.30;;
26920;SDS011;14483;47.844;9.660;2023-11-19T03:05:45;1.60;;;0.70;;
26920;SDS011;14483;47.844;9.660;2023-11-19T03:08:13;3.75;;;0.93;;
26920;SDS011;14483;47.844;9.660;2023-11-19T03:10:39;1.30;;;0.82;;
26920;SDS011;14483;47.844;9.660;2023-11-19T03:13:06;1.17;;;0.60;;
26920;SDS011;14483;47.844;9.660;2023-11-19T03:15:37;2.58;;;0.88;;
26920;SDS011;14483;47.844;9.660;2023-11-19T03:18:03;2.38;;;1.27;;
26920;SDS011;14483;47.844;9.660;2023-11-19T03:20:31;2.83;;;1.00;;
26920;SDS011;14483;47.844;9.660;2023-11-19T03:22:57;1.77;;;0.80;;
26920;SDS011;14483;47.844;9.660;2023-11-19T03:25:24;1.10;;;0.70;;
26920;SDS011;14483;47.844;9.660;2023-11-19T03:27:51;1.63;;;1.00;;
26920;SDS011;14483;47.844;9.660;2023-11-19T03:30:18;2.40;;;0.80;;
26920;SDS011;14483;47.844;9.660;2023-11-19T03:32:45;0.68;;;0.52;;
26920;SDS011;14483;47.844;9.660;2023-11-19T03:35:12;1.20;;;0.80;;
26920;SDS011;14483;47.844;9.660;2023-11-19T03:37:40;2.10;;;0.80;;
26920;SDS011;14483;47.844;9.660;2023-11-19T03:40:06;1.63;;;0.85;;
26920;SDS011;14483;47.844;9.660;2023-11-19T03:42:33;1.42;;;0.50;;
26920;SDS011;14483;47.844;9.660;2023-11-19T03:44:59;1.83;;;1.00;;
26920;SDS011;14483;47.844;9.660;2023-11-19T03:47:25;1.70;;;0.75;;
26920;SDS011;14483;47.844;9.660;2023-11-19T03:49:53;1.30;;;0.80;;
26920;SDS011;14483;47.844;9.660;2023-11-19T03:52:19;1.80;;;0.85;;
26920;SDS011;14483;47.844;9.660;2023-11-19T03:54:47;1.77;;;0.73;;
26920;SDS011;14483;47.844;9.660;2023-11-19T03:57:13;2.03;;;0.90;;
26920;SDS011;14483;47.844;9.660;2023-11-19T03:59:40;1.10;;;0.60;;
26920;SDS011;14483;47.844;9.660;2023-11-19T04:02:07;3.08;;;1.00;;
26920;SDS011;14483;47.844;9.660;2023-11-19T04:04:34;2.25;;;0.80;;
26920;SDS011;14483;47.844;9.660;2023-11-19T04:07:01;2.42;;;0.82;;
26920;SDS011;14483;47.844;9.660;2023-11-19T04:09:28;2.65;;;1.00;;
26920;SDS011;14483;47.844;9.660;2023-11-19T04:11:56;1.85;;;0.85;;
26920;SDS011;14483;47.844;9.660;2023-11-19T04:14:22;1.38;;;0.70;;
26920;SDS011;14483;47.844;9.660;2023-11-19T04:16:48;1.88;;;1.27;;
26920;SDS011;14483;47.844;9.660;2023-11-19T04:19:16;1.33;;;0.95;;
26920;SDS011;14483;47.844;9.660;2023-11-19T04:21:42;1.40;;;0.75;;
26920;SDS011;14483;47.844;9.660;2023-11-19T04:24:08;2.55;;;0.60;;
26920;SDS011;14483;47.844;9.660;2023-11-19T04:26:39;2.20;;;0.80;;
26920;SDS011;14483;47.844;9.660;2023-11-19T04:29:07;3.05;;;1.10;;
26920;SDS011;14483;47.844;9.660;2023-11-19T04:31:33;1.38;;;0.63;;
26920;SDS011;14483;47.844;9.660;2023-11-19T04:34:00;3.05;;;1.00;;
26920;SDS011;14483;47.844;9.660;2023-11-19T04:36:26;1.45;;;0.80;;
26920;SDS011;14483;47.844;9.660;2023-11-19T04:38:54;1.20;;;0.70;;
26920;SDS011;14483;47.844;9.660;2023-11-19T04:41:21;2.58;;;0.95;;
26920;SDS011;14483;47.844;9.660;2023-11-19T04:43:48;1.98;;;0.90;;
26920;SDS011;14483;47.844;9.660;2023-11-19T04:46:15;0.98;;;0.65;;
26920;SDS011;14483;47.844;9.660;2023-11-19T04:48:42;3.47;;;0.95;;
26920;SDS011;14483;47.844;9.660;2023-11-19T04:51:08;1.85;;;0.90;;
26920;SDS011;14483;47.844;9.660;2023-11-19T04:53:35;3.50;;;1.92;;
26920;SDS011;14483;47.844;9.660;2023-11-19T04:56:07;2.10;;;0.90;;
26920;SDS011;14483;47.844;9.660;2023-11-19T04:58:33;2.50;;;0.90;;
26920;SDS011;14483;47.844;9.660;2023-11-19T05:01:00;1.90;;;0.90;;
26920;SDS011;14483;47.844;9.660;2023-11-19T05:03:30;2.35;;;0.90;;
26920;SDS011;14483;47.844;9.660;2023-11-19T05:05:56;2.08;;;1.08;;
26920;SDS011;14483;47.844;9.660;2023-11-19T05:08:23;2.95;;;0.80;;
26920;SDS011;14483;47.844;9.660;2023-11-19T05:10:49;4.40;;;0.88;;
26920;SDS011;14483;47.844;9.660;2023-11-19T05:13:15;2.17;;;0.95;;
26920;SDS011;14483;47.844;9.660;2023-11-19T05:15:42;2.97;;;0.90;;
26920;SDS011;14483;47.844;9.660;2023-11-19T05:18:08;1.38;;;0.68;;
26920;SDS011;14483;47.844;9.660;2023-11-19T05:20:36;1.83;;;0.80;;
26920;SDS011;14483;47.844;9.660;2023-11-19T05:23:02;2.72;;;0.80;;
26920;SDS011;14483;47.844;9.660;2023-11-19T05:25:29;1.48;;;0.68;;
26920;SDS011;14483;47.844;9.660;2023-11-19T05:27:55;1.13;;;0.70;;
26920;SDS011;14483;47.844;9.660;2023-11-19T05:30:21;1.73;;;0.60;;
26920;SDS011;14483;47.844;9.660;2023-11-19T05:32:48;1.75;;;0.63;;
26920;SDS011;14483;47.844;9.660;2023-11-19T05:35:14;2.70;;;0.88;;
26920;SDS011;14483;47.844;9.660;2023-11-19T05:37:42;2.97;;;1.02;;
26920;SDS011;14483;47.844;9.660;2023-11-19T05:40:09;1.73;;;0.80;;
26920;SDS011;14483;47.844;9.660;2023-11-19T05:42:39;0.95;;;0.45;;
26920;SDS011;14483;47.844;9.660;2023-11-19T05:45:06;1.75;;;0.60;;
26920;SDS011;14483;47.844;9.660;2023-11-19T05:47:33;0.68;;;0.45;;
26920;SDS011;14483;47.844;9.660;2023-11-19T05:50:00;1.88;;;0.68;;
26920;SDS011;14483;47.844;9.660;2023-11-19T05:52:26;1.15;;;0.55;;
26920;SDS011;14483;47.844;9.660;2023-11-19T05:54:54;1.95;;;0.68;;
26920;SDS011;14483;47.844;9.660;2023-11-19T05:57:21;1.77;;;0.73;;
26920;SDS011;14483;47.844;9.660;2023-11-19T05:59:50;1.35;;;0.65;;
26920;SDS011;14483;47.844;9.660;2023-11-19T06:02:18;2.70;;;1.02;;
26920;SDS011;14483;47.844;9.660;2023-11-19T06:04:45;1.90;;;0.90;;
26920;SDS011;14483;47.844;9.660;2023-11-19T06:07:13;1.45;;;0.80;;
26920;SDS011;14483;47.844;9.660;2023-11-19T06:09:40;1.10;;;0.60;;
26920;SDS011;14483;47.844;9.660;2023-11-19T06:12:08;1.10;;;0.65;;
26920;SDS011;14483;47.844;9.660;2023-11-19T06:14:35;1.80;;;1.00;;
26920;SDS011;14483;47.844;9.660;2023-11-19T06:17:01;2.50;;;1.10;;
26920;SDS011;14483;47.844;9.660;2023-11-19T06:19:29;2.63;;;0.88;;
26920;SDS011;14483;47.844;9.660;2023-11-19T06:21:56;2.00;;;1.05;;
26920;SDS011;14483;47.844;9.660;2023-11-19T06:24:22;3.45;;;0.90;;
26920;SDS011;14483;47.844;9.660;2023-11-19T06:26:48;1.73;;;0.95;;
26920;SDS011;14483;47.844;9.660;2023-11-19T06:29:16;1.27;;;0.65;;
26920;SDS011;14483;47.844;9.660;2023-11-19T06:31:44;1.90;;;1.02;;
26920;SDS011;14483;47.844;9.660;2023-11-19T06:34:11;2.78;;;1.10;;
26920;SDS011;14483;47.844;9.660;2023-11-19T06:36:38;1.42;;;0.80;;
26920;SDS011;14483;47.844;9.660;2023-11-19T06:39:04;1.58;;;1.00;;
26920;SDS011;14483;47.844;9.660;2023-11-19T06:41:31;1.15;;;0.70;;
26920;SDS011;14483;47.844;9.660;2023-11-19T06:43:57;2.80;;;0.95;;
26920;SDS011;14483;47.844;9.660;2023-11-19T06:46:26;1.30;;;0.60;;
26920;SDS011;14483;47.844;9.660;2023-11-19T06:48:52;2.33;;;1.00;;
26920;SDS011;14483;47.844;9.660;2023-11-19T06:51:18;2.17;;;0.80;;
26920;SDS011;14483;47.844;9.660;2023-11-19T06:53:45;1.58;;;0.90;;
26920;SDS011;14483;47.844;9.660;2023-11-19T06:56:18;3.55;;;1.30;;
26920;SDS011;14483;47.844;9.660;2023-11-19T06:58:44;1.48;;;0.85;;
26920;SDS011;14483;47.844;9.660;2023-11-19T07:01:11;1.40;;;0.93;;
26920;SDS011;14483;47.844;9.660;2023-11-19T07:03:38;1.52;;;0.85;;
26920;SDS011;14483;47.844;9.660;2023-11-19T07:06:05;3.05;;;0.80;;
26920;SDS011;14483;47.844;9.660;2023-11-19T07:08:31;2.22;;;0.90;;
26920;SDS011;14483;47.844;9.660;2023-11-19T07:10:58;1.92;;;0.98;;
26920;SDS011;14483;47.844;9.660;2023-11-19T07:13:24;1.50;;;0.60;;
26920;SDS011;14483;47.844;9.660;2023-11-19T07:15:53;1.58;;;0.90;;
26920;SDS011;14483;47.844;9.660;2023-11-19T07:18:19;3.17;;;1.10;;
26920;SDS011;14483;47.844;9.660;2023-11-19T07:20:48;2.00;;;0.95;;
26920;SDS011;14483;47.844;9.660;2023-11-19T07:23:14;2.15;;;0.90;;
26920;SDS011;14483;47.844;9.660;2023-11-19T07:25:42;2.05;;;1.05;;
26920;SDS011;14483;47.844;9.660;2023-11-19T07:28:08;2.20;;;0.70;;
26920;SDS011;14483;47.844;9.660;2023-11-19T07:30:35;1.95;;;0.98;;
26920;SDS011;14483;47.844;9.660;2023-11-19T07:33:01;3.65;;;1.75;;
26920;SDS011;14483;47.844;9.660;2023-11-19T07:35:28;2.72;;;1.10;;
26920;SDS011;14483;47.844;9.660;2023-11-19T07:37:57;2.50;;;1.10;;
26920;SDS011;14483;47.844;9.660;2023-11-19T07:40:23;1.25;;;0.60;;
26920;SDS011;14483;47.844;9.660;2023-11-19T07:42:50;1.55;;;0.85;;
26920;SDS011;14483;47.844;9.660;2023-11-19T07:45:16;1.25;;;0.63;;
26920;SDS011;14483;47.844;9.660;2023-11-19T07:47:42;1.05;;;0.70;;
26920;SDS011;14483;47.844;9.660;2023-11-19T07:50:09;1.55;;;0.57;;
26920;SDS011;14483;47.844;9.660;2023-11-19T07:52:38;1.58;;;0.55;;
26920;SDS011;14483;47.844;9.660;2023-11-19T07:55:06;1.30;;;0.70;;
26920;SDS011;14483;47.844;9.660;2023-11-19T07:57:33;1.02;;;0.57;;
26920;SDS011;14483;47.844;9.660;2023-11-19T07:59:59;1.38;;;0.60;;
26920;SDS011;14483;47.844;9.660;2023-11-19T08:02:26;0.50;;;0.40;;
26920;SDS011;14483;47.844;9.660;2023-11-19T08:04:53;1.17;;;0.60;;
26920;SDS011;14483;47.844;9.660;2023-11-19T08:07:20;1.20;;;0.55;;
26920;SDS011;14483;47.844;9.660;2023-11-19T08:09:47;1.27;;;0.57;;
26920;SDS011;14483;47.844;9.660;2023-11-19T08:12:14;2.08;;;0.80;;
26920;SDS011;14483;47.844;9.660;2023-11-19T08:14:42;1.27;;;0.45;;
26920;SDS011;14483;47.844;9.660;2023-11-19T08:17:09;1.75;;;0.40;;
26920;SDS011;14483;47.844;9.660;2023-11-19T08:19:35;2.22;;;0.45;;
26920;SDS011;14483;47.844;9.660;2023-11-19T08:22:01;1.10;;;0.50;;
26920;SDS011;14483;47.844;9.660;2023-11-19T08:24:28;0.82;;;0.30;;
26920;SDS011;14483;47.844;9.660;2023-11-19T08:26:54;1.10;;;0.55;;
26920;SDS011;14483;47.844;9.660;2023-11-19T08:29:22;0.75;;;0.50;;
26920;SDS011;14483;47.844;9.660;2023-11-19T08:31:48;0.15;;;0.15;;
26920;SDS011;14483;47.844;9.660;2023-11-19T08:34:15;1.45;;;0.75;;
26920;SDS011;14483;47.844;9.660;2023-11-19T08:36:41;0.82;;;0.50;;
26920;SDS011;14483;47.844;9.660;2023-11-19T08:39:07;1.83;;;0.68;;
26920;SDS011;14483;47.844;9.660;2023-11-19T08:41:34;1.13;;;0.50;;
26920;SDS011;14483;47.844;9.660;2023-11-19T08:44:00;0.82;;;0.40;;
26920;SDS011;14483;47.844;9.660;2023-11-19T08:46:28;1.58;;;0.73;;
26920;SDS011;14483;47.844;9.660;2023-11-19T08:48:54;2.80;;;0.55;;
26920;SDS011;14483;47.844;9.660;2023-11-19T08:51:22;0.88;;;0.45;;
26920;SDS011;14483;47.844;9.660;2023-11-19T08:53:49;1.40;;;0.68;;
26920;SDS011;14483;47.844;9.660;2023-11-19T08:56:16;1.67;;;0.57;;
26920;SDS011;14483;47.844;9.660;2023-11-19T08:58:42;1.35;;;0.70;;
26920;SDS011;14483;47.844;9.660;2023-11-19T09:01:08;1.25;;;0.60;;
26920;SDS011;14483;47.844;9.660;2023-11-19T09:03:37;1.20;;;0.47;;
26920;SDS011;14483;47.844;9.660;2023-11-19T09:06:03;1.50;;;0.70;;
26920;SDS011;14483;47.844;9.660;2023-11-19T09:08:30;0.98;;;0.50;;
26920;SDS011;14483;47.844;9.660;2023-11-19T09:10:56;1.08;;;0.70;;
26920;SDS011;14483;47.844;9.660;2023-11-19T09:13:22;2.00;;;0.80;;
26920;SDS011;14483;47.844;9.660;2023-11-19T09:15:49;0.98;;;0.55;;
26920;SDS011;14483;47.844;9.660;2023-11-19T09:18:15;1.98;;;0.70;;
26920;SDS011;14483;47.844;9.660;2023-11-19T09:20:43;2.25;;;0.60;;
26920;SDS011;14483;47.844;9.660;2023-11-19T09:23:10;3.38;;;1.17;;
26920;SDS011;14483;47.844;9.660;2023-11-19T09:25:37;1.42;;;0.55;;
26920;SDS011;14483;47.844;9.660;2023-11-19T09:28:04;0.85;;;0.43;;
26920;SDS011;14483;47.844;9.660;2023-11-19T09:30:30;0.85;;;0.20;;
26920;SDS011;14483;47.844;9.660;2023-11-19T09:32:58;1.95;;;0.40;;
26920;SDS011;14483;47.844;9.660;2023-11-19T09:35:25;2.08;;;0.47;;
26920;SDS011;14483;47.844;9.660;2023-11-19T09:37:52;2.28;;;0.43;;
26920;SDS011;14483;47.844;9.660;2023-11-19T09:40:19;0.98;;;0.35;;
26920;SDS011;14483;47.844;9.660;2023-11-19T09:42:45;0.52;;;0.30;;
26920;SDS011;14483;47.844;9.660;2023-11-19T09:45:12;1.23;;;0.30;;
26920;SDS011;14483;47.844;9.660;2023-11-19T09:47:39;0.40;;;0.30;;
26920;SDS011;14483;47.844;9.660;2023-11-19T09:50:06;0.80;;;0.50;;
26920;SDS011;14483;47.844;9.660;2023-11-19T09:52:33;0.35;;;0.30;;
26920;SDS011;14483;47.844;9.660;2023-11-19T09:55:00;0.65;;;0.35;;
26920;SDS011;14483;47.844;9.660;2023-11-19T09:57:27;0.70;;;0.30;;
26920;SDS011;14483;47.844;9.660;2023-11-19T09:59:54;1.67;;;0.60;;
26920;SDS011;14483;47.844;9.660;2023-11-19T10:02:21;0.52;;;0.30;;
26920;SDS011;14483;47.844;9.660;2023-11-19T10:04:47;1.88;;;0.40;;
26920;SDS011;14483;47.844;9.660;2023-11-19T10:07:14;1.10;;;0.40;;
26920;SDS011;14483;47.844;9.660;2023-11-19T10:09:41;2.22;;;0.60;;
26920;SDS011;14483;47.844;9.660;2023-11-19T10:12:08;0.85;;;0.40;;
26920;SDS011;14483;47.844;9.660;2023-11-19T10:14:35;2.20;;;0.30;;
26920;SDS011;14483;47.844;9.660;2023-11-19T10:17:04;1.25;;;0.60;;
26920;SDS011;14483;47.844;9.660;2023-11-19T10:19:33;0.75;;;0.40;;
26920;SDS011;14483;47.844;9.660;2023-11-19T10:22:02;1.50;;;0.40;;
26920;SDS011;14483;47.844;9.660;2023-11-19T10:24:31;1.20;;;0.45;;
26920;SDS011;14483;47.844;9.660;2023-11-19T10:26:57;1.25;;;0.30;;
26920;SDS011;14483;47.844;9.660;2023-11-19T10:29:25;0.98;;;0.50;;
26920;SDS011;14483;47.844;9.660;2023-11-19T10:31:55;1.25;;;0.47;;
26920;SDS011;14483;47.844;9.660;2023-11-19T10:34:23;1.60;;;0.40;;
26920;SDS011;14483;47.844;9.660;2023-11-19T10:36:50;0.82;;;0.10;;
26920;SDS011;14483;47.844;9.660;2023-11-19T10:39:16;1.15;;;0.50;;
26920;SDS011;14483;47.844;9.660;2023-11-19T10:41:44;1.13;;;0.47;;
26920;SDS011;14483;47.844;9.660;2023-11-19T10:44:10;0.77;;;0.40;;
26920;SDS011;14483;47.844;9.660;2023-11-19T10:46:38;0.85;;;0.25;;
26920;SDS011;14483;47.844;9.660;2023-11-19T10:49:05;2.25;;;0.30;;
26920;SDS011;14483;47.844;9.660;2023-11-19T10:51:32;0.55;;;0.20;;
26920;SDS011;14483;47.844;9.660;2023-11-19T10:54:00;0.88;;;0.40;;
26920;SDS011;14483;47.844;9.660;2023-11-19T10:56:29;2.00;;;0.50;;
26920;SDS011;14483;47.844;9.660;2023-11-19T10:58:56;0.85;;;0.28;;
26920;SDS011;14483;47.844;9.660;2023-11-19T11:01:24;2.33;;;0.32;;
26920;SDS011;14483;47.844;9.660;2023-11-19T11:03:54;1.33;;;0.40;;
26920;SDS011;14483;47.844;9.660;2023-11-19T11:06:22;1.95;;;0.30;;
26920;SDS011;14483;47.844;9.660;2023-11-19T11:08:48;0.50;;;0.40;;
26920;SDS011;14483;47.844;9.660;2023-11-19T11:11:15;0.95;;;0.40;;
26920;SDS011;14483;47.844;9.660;2023-11-19T11:13:42;1.27;;;0.32;;
26920;SDS011;14483;47.844;9.660;2023-11-19T11:16:09;0.35;;;0.30;;
26920;SDS011;14483;47.844;9.660;2023-11-19T11:18:36;0.43;;;0.30;;
26920;SDS011;14483;47.844;9.660;2023-11-19T11:21:04;0.75;;;0.43;;
26920;SDS011;14483;47.844;9.660;2023-11-19T11:23:47;1.13;;;0.30;;
26920;SDS011;14483;47.844;9.660;2023-11-19T11:26:31;0.32;;;0.20;;
26920;SDS011;14483;47.844;9.660;2023-11-19T11:29:02;0.60;;;0.30;;
26920;SDS011;14483;47.844;9.660;2023-11-19T11:31:31;0.63;;;0.30;;
26920;SDS011;14483;47.844;9.660;2023-11-19T11:34:05;0.30;;;0.10;;
26920;SDS011;14483;47.844;9.660;2023-11-19T11:36:35;2.05;;;0.40;;
26920;SDS011;14483;47.844;9.660;2023-11-19T11:39:04;0.93;;;0.40;;
26920;SDS011;14483;47.844;9.660;2023-11-19T11:41:32;1.65;;;0.70;;
26920;SDS011;14483;47.844;9.660;2023-11-19T11:43:59;1.33;;;0.68;;
26920;SDS011;14483;47.844;9.660;2023-11-19T11:49:11;1.83;;;0.60;;
26920;SDS011;14483;47.844;9.660;2023-11-19T11:54:27;1.25;;;0.65;;
26920;SDS011;14483;47.844;9.660;2023-11-19T11:59:46;0.60;;;0.40;;
26920;SDS011;14483;47.844;9.660;2023-11-19T12:02:13;1.08;;;0.50;;
26920;SDS011;14483;47.844;9.660;2023-11-19T12:04:41;1.15;;;0.40;;
26920;SDS011;14483;47.844;9.660;2023-11-19T12:07:08;3.03;;;0.60;;
26920;SDS011;14483;47.844;9.660;2023-11-19T12:09:39;1.70;;;0.50;;
26920;SDS011;14483;47.844;9.660;2023-11-19T12:12:13;1.45;;;0.30;;
26920;SDS011;14483;47.844;9.660;2023-11-19T12:15:02;1.17;;;0.30;;
26920;SDS011;14483;47.844;9.660;2023-11-19T12:20:18;1.60;;;0.50;;
26920;SDS011;14483;47.844;9.660;2023-11-19T12:22:46;2.22;;;0.57;;
26920;SDS011;14483;47.844;9.660;2023-11-19T12:25:15;0.90;;;0.22;;
26920;SDS011;14483;47.844;9.660;2023-11-19T12:27:43;0.90;;;0.38;;
26920;SDS011;14483;47.844;9.660;2023-11-19T12:30:10;1.17;;;0.30;;
26920;SDS011;14483;47.844;9.660;2023-11-19T12:32:37;0.30;;;0.30;;
26920;SDS011;14483;47.844;9.660;2023-11-19T12:35:04;1.98;;;0.52;;
26920;SDS011;14483;47.844;9.660;2023-11-19T12:37:30;2.35;;;0.45;;
26920;SDS011;14483;47.844;9.660;2023-11-19T12:39:56;0.30;;;0.22;;
26920;SDS011;14483;47.844;9.660;2023-11-19T12:42:35;1.10;;;0.60;;
26920;SDS011;14483;47.844;9.660;2023-11-19T12:45:02;0.60;;;0.30;;
26920;SDS011;14483;47.844;9.660;2023-11-19T12:47:29;0.30;;;0.20;;
26920;SDS011;14483;47.844;9.660;2023-11-19T12:49:55;1.13;;;0.30;;
26920;SDS011;14483;47.844;9.660;2023-11-19T12:52:22;0.80;;;0.22;;
26920;SDS011;14483;47.844;9.660;2023-11-19T12:54:48;0.95;;;0.60;;
26920;SDS011;14483;47.844;9.660;2023-11-19T12:57:15;0.90;;;0.40;;
26920;SDS011;14483;47.844;9.660;2023-11-19T12:59:43;0.43;;;0.30;;
26920;SDS011;14483;47.844;9.660;2023-11-19T13:02:09;0.55;;;0.30;;
26920;SDS011;14483;47.844;9.660;2023-11-19T13:04:35;0.52;;;0.28;;
26920;SDS011;14483;47.844;9.660;2023-11-19T13:07:02;0.47;;;0.20;;
26920;SDS011;14483;47.844;9.660;2023-11-19T13:09:29;1.15;;;0.50;;
26920;SDS011;14483;47.844;9.660;2023-11-19T13:11:56;1.58;;;0.20;;
26920;SDS011;14483;47.844;9.660;2023-11-19T13:14:23;0.57;;;0.38;;
26920;SDS011;14483;47.844;9.660;2023-11-19T13:16:51;0.65;;;0.38;;
26920;SDS011;14483;47.844;9.660;2023-11-19T13:19:19;1.35;;;0.43;;
26920;SDS011;14483;47.844;9.660;2023-11-19T13:21:45;1.42;;;0.32;;
26920;SDS011;14483;47.844;9.660;2023-11-19T13:24:12;0.93;;;0.28;;
26920;SDS011;14483;47.844;9.660;2023-11-19T13:26:39;0.75;;;0.30;;
26920;SDS011;14483;47.844;9.660;2023-11-19T13:29:05;0.80;;;0.40;;
26920;SDS011;14483;47.844;9.660;2023-11-19T13:31:31;0.85;;;0.35;;
26920;SDS011;14483;47.844;9.660;2023-11-19T13:33:59;0.75;;;0.20;;
26920;SDS011;14483;47.844;9.660;2023-11-19T13:36:25;2.58;;;0.45;;
26920;SDS011;14483;47.844;9.660;2023-11-19T13:38:52;0.65;;;0.38;;
26920;SDS011;14483;47.844;9.660;2023-11-19T13:41:23;1.20;;;0.40;;
26920;SDS011;14483;47.844;9.660;2023-11-19T13:43:50;0.98;;;0.50;;
26920;SDS011;14483;47.844;9.660;2023-11-19T13:46:16;1.50;;;0.20;;
26920;SDS011;14483;47.844;9.660;2023-11-19T13:48:43;0.88;;;0.30;;
26920;SDS011;14483;47.844;9.660;2023-11-19T13:51:11;0.70;;;0.30;;
26920;SDS011;14483;47.844;9.660;2023-11-19T13:53:37;2.25;;;0.40;;
26920;SDS011;14483;47.844;9.660;2023-11-19T13:56:04;0.30;;;0.20;;
26920;SDS011;14483;47.844;9.660;2023-11-19T13:58:30;0.55;;;0.20;;
26920;SDS011;14483;47.844;9.660;2023-11-19T14:00:57;0.60;;;0.13;;
26920;SDS011;14483;47.844;9.660;2023-11-19T14:03:23;0.10;;;0.10;;
26920;SDS011;14483;47.844;9.660;2023-11-19T14:05:50;1.30;;;0.30;;
26920;SDS011;14483;47.844;9.660;2023-11-19T14:08:18;0.60;;;0.25;;
26920;SDS011;14483;47.844;9.660;2023-11-19T14:10:45;0.55;;;0.40;;
26920;SDS011;14483;47.844;9.660;2023-11-19T14:13:11;0.35;;;0.30;;
26920;SDS011;14483;47.844;9.660;2023-11-19T14:15:40;0.32;;;0.13;;
26920;SDS011;14483;47.844;9.660;2023-11-19T14:18:07;0.52;;;0.30;;
26920;SDS011;14483;47.844;9.660;2023-11-19T14:20:33;0.82;;;0.30;;
26920;SDS011;14483;47.844;9.660;2023-11-19T14:23:01;0.90;;;0.30;;
26920;SDS011;14483;47.844;9.660;2023-11-19T14:25:29;0.80;;;0.38;;
26920;SDS011;14483;47.844;9.660;2023-11-19T14:27:55;0.82;;;0.35;;
26920;SDS011;14483;47.844;9.660;2023-11-19T14:30:21;1.77;;;0.30;;
26920;SDS011;14483;47.844;9.660;2023-11-19T14:32:48;0.57;;;0.20;;
26920;SDS011;14483;47.844;9.660;2023-11-19T14:35:14;0.47;;;0.25;;
26920;SDS011;14483;47.844;9.660;2023-11-19T14:37:41;0.80;;;0.30;;
26920;SDS011;14483;47.844;9.660;2023-11-19T14:40:06;0.68;;;0.30;;
26920;SDS011;14483;47.844;9.660;2023-11-19T14:42:36;1.08;;;0.20;;
26920;SDS011;14483;47.844;9.660;2023-11-19T14:45:04;0.38;;;0.20;;
26920;SDS011;14483;47.844;9.660;2023-11-19T14:47:30;0.68;;;0.20;;
26920;SDS011;14483;47.844;9.660;2023-11-19T14:49:57;0.10;;;0.10;;
26920;SDS011;14483;47.844;9.660;2023-11-19T14:52:23;0.40;;;0.28;;
26920;SDS011;14483;47.844;9.660;2023-11-19T14:54:49;1.17;;;0.30;;
26920;SDS011;14483;47.844;9.660;2023-11-19T14:57:19;1.30;;;0.35;;
26920;SDS011;14483;47.844;9.660;2023-11-19T14:59:46;1.42;;;0.50;;